Time;durP1;ratioP1;P1;durP2;ratioP2;P2;SDS_P1;SDS_P2;PMS_P1;PMS_P2;Temp;Humidity;BMP_temperature;BMP_pressure;BME280_temperature;BME280_humidity;BME280_pressure;Samples;Min_cycle;Max_cycle;Signal;HPM_P1;HPM_P2
2022/04/10 00:00:57;;;;;;;8.07;3.90;;;;;;;;;;2088099;28;20167;-56
2022/04/10 00:01:57;;;;;;;5.67;3.53;;;;;;;;;;2084434;28;20179;-54
2022/04/10 00:02:57;;;;;;;8.30;3.97;;;;;;;;;;2087237;28;20196;-57
2022/04/10 00:03:58;;;;;;;6.93;3.93;;;;;;;;;;2087584;28;20186;-53
2022/04/10 00:04:58;;;;;;;8.00;3.90;;;;;;;;;;2090121;28;20197;-55
2022/04/10 00:05:58;;;;;;;4.37;3.77;;;;;;;;;;2084567;28;20636;-55
2022/04/10 00:06:58;;;;;;;5.03;3.60;;;;;;;;;;2083356;28;20179;-57
2022/04/10 00:07:59;;;;;;;6.00;4.00;;;;;;;;;;2096084;28;20167;-56
2022/04/10 00:08:59;;;;;;;8.93;4.00;;;;;;;;;;2087416;28;20615;-54
2022/04/10 00:10:00;;;;;;;10.00;3.90;;;;;;;;;;2085668;28;20200;-49
2022/04/10 00:11:00;;;;;;;4.97;3.30;;;;;;;;;;2092858;28;20217;-58
2022/04/10 00:12:00;;;;;;;8.80;3.83;;;;;;;;;;2085491;28;20293;-50
2022/04/10 00:13:01;;;;;;;8.20;3.77;;;;;;;;;;2080869;28;20184;-52
2022/04/10 00:14:01;;;;;;;7.60;3.83;;;;;;;;;;2080549;28;20744;-57
2022/04/10 00:15:05;;;;;;;10.23;4.33;;;;;;;;;;2084693;28;20191;-55
2022/04/10 00:16:05;;;;;;;8.10;3.53;;;;;;;;;;2094580;28;20179;-58
2022/04/10 00:17:06;;;;;;;10.17;4.33;;;;;;;;;;2093986;28;20273;-55
2022/04/10 00:18:06;;;;;;;6.40;3.77;;;;;;;;;;2091914;28;20636;-57
2022/04/10 00:19:06;;;;;;;5.30;3.83;;;;;;;;;;2093033;28;20229;-57
2022/04/10 00:20:07;;;;;;;7.00;3.73;;;;;;;;;;2093679;28;20199;-50
2022/04/10 00:21:07;;;;;;;9.80;3.70;;;;;;;;;;2090940;28;20179;-57
2022/04/10 00:22:08;;;;;;;5.73;3.80;;;;;;;;;;2096911;28;20635;-56
2022/04/10 00:23:09;;;;;;;5.93;4.00;;;;;;;;;;2092806;28;20226;-59
2022/04/10 00:24:09;;;;;;;7.17;4.50;;;;;;;;;;2090731;28;20642;-53
2022/04/10 00:25:10;;;;;;;6.67;3.80;;;;;;;;;;2094164;28;20175;-58
2022/04/10 00:26:12;;;;;;;5.50;4.03;;;;;;;;;;2092529;28;20621;-50
2022/04/10 00:27:14;;;;;;;6.10;3.83;;;;;;;;;;2092631;28;20239;-59
2022/04/10 00:28:14;;;;;;;4.13;3.77;;;;;;;;;;2092388;28;20181;-55
2022/04/10 00:29:15;;;;;;;7.87;4.10;;;;;;;;;;2092441;28;20288;-57
2022/04/10 00:30:17;;;;;;;8.27;4.20;;;;;;;;;;2090532;28;20188;-56
2022/04/10 00:31:17;;;;;;;5.27;3.60;;;;;;;;;;2093219;28;20183;-56
2022/04/10 00:32:18;;;;;;;9.37;3.93;;;;;;;;;;2079711;28;20200;-52
2022/04/10 00:33:19;;;;;;;12.53;4.17;;;;;;;;;;2076268;28;20172;-51
2022/04/10 00:34:20;;;;;;;8.23;3.80;;;;;;;;;;2083537;28;20164;-54
2022/04/10 00:35:20;;;;;;;8.97;4.20;;;;;;;;;;2090087;28;20730;-56
2022/04/10 00:36:22;;;;;;;7.47;3.77;;;;;;;;;;2082037;28;20177;-53
2022/04/10 00:37:22;;;;;;;7.67;3.90;;;;;;;;;;2086872;28;20423;-55
2022/04/10 00:38:22;;;;;;;6.50;3.90;;;;;;;;;;2086232;28;20195;-59
2022/04/10 00:39:23;;;;;;;8.17;4.17;;;;;;;;;;2094287;28;20214;-57
2022/04/10 00:40:23;;;;;;;9.23;4.00;;;;;;;;;;2085652;28;20176;-55
2022/04/10 00:41:23;;;;;;;5.40;4.10;;;;;;;;;;2072407;28;20172;-55
2022/04/10 00:42:30;;;;;;;7.13;3.90;;;;;;;;;;2064672;28;20291;-57
2022/04/10 00:43:34;;;;;;;5.43;4.00;;;;;;;;;;2089163;28;20237;-59
2022/04/10 00:44:35;;;;;;;4.30;3.50;;;;;;;;;;2079918;28;20727;-56
2022/04/10 00:45:35;;;;;;;6.53;4.20;;;;;;;;;;2088800;28;20179;-58
2022/04/10 00:46:36;;;;;;;5.83;3.90;;;;;;;;;;2089136;28;20546;-53
2022/04/10 00:47:36;;;;;;;7.23;4.07;;;;;;;;;;2080046;28;20279;-56
2022/04/10 00:48:36;;;;;;;10.53;4.07;;;;;;;;;;2072803;28;20224;-54
2022/04/10 00:49:37;;;;;;;7.73;3.97;;;;;;;;;;2095165;28;20202;-51
2022/04/10 00:51:40;;;;;;;7.97;3.33;;;;;;;;;;2080752;28;20211;-55
2022/04/10 00:51:59;;;;;;;7.27;3.83;;;;;;;;;;2091025;28;20190;-54
2022/04/10 00:52:59;;;;;;;5.43;3.47;;;;;;;;;;2084897;28;20525;-53
2022/04/10 00:54:00;;;;;;;7.90;3.73;;;;;;;;;;2078347;28;20191;-48
2022/04/10 00:55:00;;;;;;;5.73;3.33;;;;;;;;;;2085423;28;20661;-54
2022/04/10 00:56:01;;;;;;;8.00;3.70;;;;;;;;;;2083859;28;20889;-56
2022/04/10 00:57:02;;;;;;;7.97;4.17;;;;;;;;;;2084748;28;20212;-51
2022/04/10 00:58:02;;;;;;;8.37;3.80;;;;;;;;;;2075713;28;20181;-54
2022/04/10 00:59:03;;;;;;;5.73;3.00;;;;;;;;;;2085092;28;20172;-56
2022/04/10 01:00:06;;;;;;;5.77;3.57;;;;;;;;;;2082284;28;20580;-57
2022/04/10 01:01:07;;;;;;;7.37;3.80;;;;;;;;;;2080765;28;20644;-53
2022/04/10 01:02:07;;;;;;;10.70;4.20;;;;;;;;;;2085230;28;20267;-53
2022/04/10 01:03:08;;;;;;;7.27;3.50;;;;;;;;;;2087558;28;20176;-55
2022/04/10 01:04:08;;;;;;;4.50;3.23;;;;;;;;;;2083453;28;20506;-55
2022/04/10 01:05:08;;;;;;;6.77;3.63;;;;;;;;;;2079596;28;20188;-57
2022/04/10 01:06:09;;;;;;;4.77;3.23;;;;;;;;;;2084150;28;20275;-54
2022/04/10 01:07:13;;;;;;;10.07;3.87;;;;;;;;;;2084299;28;20213;-53
2022/04/10 01:08:16;;;;;;;6.53;3.77;;;;;;;;;;2075548;28;20208;-53
2022/04/10 01:09:17;;;;;;;5.47;3.70;;;;;;;;;;2061444;28;20311;-57
2022/04/10 01:10:17;;;;;;;5.37;4.20;;;;;;;;;;2075595;28;20843;-55
2022/04/10 01:11:17;;;;;;;4.83;3.80;;;;;;;;;;2082781;28;20780;-53
2022/04/10 01:12:18;;;;;;;5.70;3.27;;;;;;;;;;2090661;28;20214;-50
2022/04/10 01:13:23;;;;;;;7.90;3.60;;;;;;;;;;2073411;28;20173;-53
2022/04/10 01:14:23;;;;;;;6.77;4.57;;;;;;;;;;2070493;28;20224;-56
2022/04/10 01:15:23;;;;;;;8.13;4.03;;;;;;;;;;2079235;28;20199;-53
2022/04/10 01:16:24;;;;;;;5.70;3.63;;;;;;;;;;2073907;28;20177;-57
2022/04/10 01:17:27;;;;;;;5.10;3.67;;;;;;;;;;2072767;28;20172;-57
2022/04/10 01:18:28;;;;;;;8.63;3.87;;;;;;;;;;2081322;28;20254;-56
2022/04/10 01:19:30;;;;;;;9.37;4.03;;;;;;;;;;2073650;28;20204;-55
2022/04/10 01:20:34;;;;;;;10.70;4.23;;;;;;;;;;2073335;28;20180;-57
2022/04/10 01:21:40;;;;;;;10.13;4.60;;;;;;;;;;2077902;28;20180;-52
2022/04/10 01:22:41;;;;;;;6.00;3.80;;;;;;;;;;2073438;28;20187;-56
2022/04/10 01:23:45;;;;;;;11.37;5.00;;;;;;;;;;2073303;28;20551;-50
2022/04/10 01:24:45;;;;;;;8.47;3.93;;;;;;;;;;2080609;28;20183;-56
2022/04/10 01:25:50;;;;;;;9.70;4.33;;;;;;;;;;2089152;28;20175;-57
2022/04/10 01:26:51;;;;;;;6.47;4.00;;;;;;;;;;2089026;28;20179;-55
2022/04/10 01:27:56;;;;;;;8.40;3.77;;;;;;;;;;2075645;28;20294;-59
2022/04/10 01:29:04;;;;;;;6.77;3.60;;;;;;;;;;2065038;28;20277;-57
2022/04/10 01:30:08;;;;;;;6.73;4.00;;;;;;;;;;2065436;28;20777;-54
2022/04/10 01:31:09;;;;;;;12.13;3.97;;;;;;;;;;2064858;28;20177;-54
2022/04/10 01:32:10;;;;;;;6.93;3.90;;;;;;;;;;2072654;28;20756;-52
2022/04/10 01:33:11;;;;;;;9.30;3.90;;;;;;;;;;2081033;28;20211;-55
2022/04/10 01:34:15;;;;;;;6.97;3.90;;;;;;;;;;2077649;28;20263;-51
2022/04/10 01:35:16;;;;;;;5.60;4.00;;;;;;;;;;2077088;28;20775;-56
2022/04/10 01:36:16;;;;;;;7.03;4.03;;;;;;;;;;2065896;28;20647;-57
2022/04/10 01:37:18;;;;;;;8.13;3.90;;;;;;;;;;2077778;28;20172;-56
2022/04/10 01:38:19;;;;;;;6.97;3.57;;;;;;;;;;2082501;28;20180;-55
2022/04/10 01:39:26;;;;;;;6.13;3.77;;;;;;;;;;2076566;28;20204;-50
2022/04/10 01:40:27;;;;;;;6.37;4.13;;;;;;;;;;2084020;28;20256;-51
2022/04/10 01:41:28;;;;;;;8.93;4.20;;;;;;;;;;2079214;28;20177;-57
2022/04/10 01:42:30;;;;;;;8.73;4.00;;;;;;;;;;2072924;28;20192;-57
2022/04/10 01:43:31;;;;;;;6.67;3.93;;;;;;;;;;2074060;28;20165;-50
2022/04/10 01:44:38;;;;;;;6.30;3.87;;;;;;;;;;2075018;28;20824;-54
2022/04/10 01:45:39;;;;;;;6.53;4.30;;;;;;;;;;2074030;28;20203;-55
2022/04/10 01:46:39;;;;;;;7.93;4.00;;;;;;;;;;2081648;28;20190;-56
2022/04/10 01:47:41;;;;;;;6.43;4.40;;;;;;;;;;2071558;28;20675;-50
2022/04/10 01:48:43;;;;;;;8.17;4.20;;;;;;;;;;2059479;28;20442;-57
2022/04/10 01:49:44;;;;;;;7.57;3.87;;;;;;;;;;2086011;28;20222;-53
2022/04/10 01:50:44;;;;;;;7.27;3.73;;;;;;;;;;2077805;28;20180;-57
2022/04/10 01:51:44;;;;;;;9.80;4.00;;;;;;;;;;2089962;28;20172;-58
2022/04/10 01:52:45;;;;;;;6.40;3.70;;;;;;;;;;2092456;28;20700;-54
2022/04/10 01:53:45;;;;;;;9.70;4.37;;;;;;;;;;2098325;28;20166;-55
2022/04/10 01:54:46;;;;;;;7.73;4.00;;;;;;;;;;2092677;28;20178;-55
2022/04/10 01:55:46;;;;;;;9.53;4.30;;;;;;;;;;2098942;28;20183;-54
2022/04/10 01:56:46;;;;;;;15.13;4.00;;;;;;;;;;2084236;28;20177;-57
2022/04/10 01:57:48;;;;;;;9.93;4.23;;;;;;;;;;2088936;28;20568;-57
2022/04/10 01:58:51;;;;;;;12.77;3.93;;;;;;;;;;2076579;28;20418;-53
2022/04/10 01:59:52;;;;;;;5.13;3.03;;;;;;;;;;2076822;28;20185;-58
2022/04/10 02:00:52;;;;;;;9.00;4.17;;;;;;;;;;2076479;28;20726;-54
2022/04/10 02:01:52;;;;;;;8.30;3.60;;;;;;;;;;2078351;28;20176;-54
2022/04/10 02:02:52;;;;;;;8.40;5.07;;;;;;;;;;2077232;28;20179;-53
2022/04/10 02:03:54;;;;;;;12.87;4.40;;;;;;;;;;2093207;28;20599;-55
2022/04/10 02:04:54;;;;;;;7.43;3.60;;;;;;;;;;2086150;28;20160;-56
2022/04/10 02:05:55;;;;;;;9.20;4.97;;;;;;;;;;2082740;28;20172;-54
2022/04/10 02:06:56;;;;;;;9.53;3.77;;;;;;;;;;2076228;28;20176;-53
2022/04/10 02:07:56;;;;;;;14.23;4.53;;;;;;;;;;2076068;28;20189;-52
2022/04/10 02:08:57;;;;;;;12.97;4.23;;;;;;;;;;2077020;28;20697;-50
2022/04/10 02:09:57;;;;;;;11.90;5.10;;;;;;;;;;2077057;28;20192;-51
2022/04/10 02:10:58;;;;;;;9.40;3.87;;;;;;;;;;2076735;28;20175;-58
2022/04/10 02:11:58;;;;;;;9.73;4.50;;;;;;;;;;2084607;28;20176;-54
2022/04/10 02:12:59;;;;;;;8.63;3.93;;;;;;;;;;2084807;28;20236;-53
2022/04/10 02:13:59;;;;;;;8.80;4.10;;;;;;;;;;2075565;28;20263;-55
2022/04/10 02:15:00;;;;;;;9.73;4.97;;;;;;;;;;2074950;28;20164;-56
2022/04/10 02:16:00;;;;;;;5.00;3.67;;;;;;;;;;2074234;28;20272;-54
2022/04/10 02:17:00;;;;;;;6.87;4.57;;;;;;;;;;2082881;28;20688;-59
2022/04/10 02:18:01;;;;;;;12.53;4.57;;;;;;;;;;2074111;28;20367;-54
2022/04/10 02:19:01;;;;;;;10.93;4.30;;;;;;;;;;2081872;28;20159;-54
2022/04/10 02:20:02;;;;;;;5.77;4.30;;;;;;;;;;2112364;23;20227;-60
2022/04/10 02:21:03;;;;;;;10.50;4.93;;;;;;;;;;2086058;28;20190;-53
2022/04/10 02:22:03;;;;;;;11.30;4.57;;;;;;;;;;2080146;28;20168;-61
2022/04/10 02:23:03;;;;;;;8.70;5.00;;;;;;;;;;2074089;28;20193;-60
2022/04/10 02:24:04;;;;;;;5.20;4.63;;;;;;;;;;2077893;28;20256;-58
2022/04/10 02:25:04;;;;;;;11.23;4.77;;;;;;;;;;2085289;28;20687;-54
2022/04/10 02:26:05;;;;;;;9.70;4.90;;;;;;;;;;2090313;28;20168;-58
2022/04/10 02:27:05;;;;;;;7.03;4.23;;;;;;;;;;2086370;28;20242;-54
2022/04/10 02:28:06;;;;;;;7.43;4.17;;;;;;;;;;2085727;28;20232;-54
2022/04/10 02:29:06;;;;;;;7.90;4.50;;;;;;;;;;2085241;28;20236;-57
2022/04/10 02:30:07;;;;;;;8.43;4.33;;;;;;;;;;2085813;28;20196;-54
2022/04/10 02:31:07;;;;;;;7.07;4.77;;;;;;;;;;2085932;28;20173;-59
2022/04/10 02:32:09;;;;;;;6.90;4.33;;;;;;;;;;2086632;28;20249;-55
2022/04/10 02:33:09;;;;;;;8.47;4.40;;;;;;;;;;2093695;28;20270;-53
2022/04/10 02:34:09;;;;;;;12.00;4.43;;;;;;;;;;2089615;28;20175;-59
2022/04/10 02:35:09;;;;;;;8.57;4.23;;;;;;;;;;2091596;28;20164;-56
2022/04/10 02:36:11;;;;;;;10.27;4.67;;;;;;;;;;2101638;28;20163;-53
2022/04/10 02:37:12;;;;;;;7.97;4.53;;;;;;;;;;2099795;28;20313;-53
2022/04/10 02:38:16;;;;;;;6.50;4.63;;;;;;;;;;2090003;28;20419;-57
2022/04/10 02:39:18;;;;;;;8.20;4.00;;;;;;;;;;2083519;28;20234;-58
2022/04/10 02:40:19;;;;;;;7.07;3.90;;;;;;;;;;2077029;28;20697;-57
2022/04/10 02:41:21;;;;;;;8.17;4.57;;;;;;;;;;2074286;28;20242;-57
2022/04/10 02:42:22;;;;;;;5.80;3.70;;;;;;;;;;2074396;28;20662;-55
2022/04/10 02:43:22;;;;;;;9.50;4.77;;;;;;;;;;2081977;28;20208;-60
2022/04/10 02:44:25;;;;;;;8.67;5.37;;;;;;;;;;2084869;28;20176;-59
2022/04/10 02:45:25;;;;;;;10.77;4.63;;;;;;;;;;2083897;28;20287;-59
2022/04/10 02:46:26;;;;;;;8.90;4.10;;;;;;;;;;2078806;28;20172;-58
2022/04/10 02:47:26;;;;;;;8.60;4.37;;;;;;;;;;2080554;28;20233;-57
2022/04/10 02:48:27;;;;;;;14.30;4.50;;;;;;;;;;2082290;28;20183;-57
2022/04/10 02:49:28;;;;;;;12.40;4.57;;;;;;;;;;2076944;28;20181;-60
2022/04/10 02:50:28;;;;;;;7.53;3.97;;;;;;;;;;2074433;28;20192;-60
2022/04/10 02:51:29;;;;;;;5.67;4.20;;;;;;;;;;2081891;28;20216;-58
2022/04/10 02:52:31;;;;;;;12.57;4.90;;;;;;;;;;2089692;28;20258;-59
2022/04/10 02:53:32;;;;;;;11.00;4.40;;;;;;;;;;2073999;28;20173;-58
2022/04/10 02:54:32;;;;;;;11.33;4.77;;;;;;;;;;2086630;28;20178;-57
2022/04/10 02:55:33;;;;;;;8.70;4.83;;;;;;;;;;2081347;28;20172;-58
2022/04/10 02:56:33;;;;;;;8.77;4.73;;;;;;;;;;2089359;28;20168;-58
2022/04/10 02:57:34;;;;;;;10.67;4.53;;;;;;;;;;2082071;28;20173;-57
2022/04/10 02:58:34;;;;;;;9.03;4.70;;;;;;;;;;2081975;28;20195;-54
2022/04/10 02:59:37;;;;;;;13.27;4.53;;;;;;;;;;2073151;28;20185;-56
2022/04/10 03:00:37;;;;;;;15.20;5.47;;;;;;;;;;2081323;28;20409;-56
2022/04/10 03:01:37;;;;;;;9.90;4.77;;;;;;;;;;2088886;28;20312;-54
2022/04/10 03:02:38;;;;;;;8.83;5.00;;;;;;;;;;2079085;28;20165;-54
2022/04/10 03:03:38;;;;;;;11.20;4.63;;;;;;;;;;2089789;28;20193;-56
2022/04/10 03:04:39;;;;;;;6.63;4.03;;;;;;;;;;2080926;28;20246;-57
2022/04/10 03:05:39;;;;;;;7.33;4.33;;;;;;;;;;2073656;28;20204;-58
2022/04/10 03:06:39;;;;;;;11.80;4.57;;;;;;;;;;2081113;28;20187;-57
2022/04/10 03:07:40;;;;;;;9.50;5.13;;;;;;;;;;2088180;28;20184;-60
2022/04/10 03:08:41;;;;;;;9.97;4.53;;;;;;;;;;2084994;28;20176;-58
2022/04/10 03:09:41;;;;;;;9.83;4.53;;;;;;;;;;2081220;28;20425;-56
2022/04/10 03:10:42;;;;;;;10.20;4.43;;;;;;;;;;2082178;28;20739;-61
2022/04/10 03:11:42;;;;;;;7.93;4.73;;;;;;;;;;2086737;28;20187;-52
2022/04/10 03:12:43;;;;;;;14.17;5.67;;;;;;;;;;2088693;28;20207;-59
2022/04/10 03:13:44;;;;;;;9.97;4.87;;;;;;;;;;2082628;28;20207;-53
2022/04/10 03:14:45;;;;;;;9.43;4.00;;;;;;;;;;2086320;28;20659;-56
2022/04/10 03:15:46;;;;;;;8.60;4.47;;;;;;;;;;2082365;28;20183;-56
2022/04/10 03:16:47;;;;;;;13.67;4.90;;;;;;;;;;2080870;28;20172;-55
2022/04/10 03:17:47;;;;;;;11.77;4.87;;;;;;;;;;2076571;28;20433;-56
2022/04/10 03:18:50;;;;;;;5.47;4.47;;;;;;;;;;2080364;28;20250;-56
2022/04/10 03:19:50;;;;;;;8.67;4.50;;;;;;;;;;2082343;28;20250;-57
2022/04/10 03:20:50;;;;;;;7.03;5.07;;;;;;;;;;2085691;28;20180;-62
2022/04/10 03:21:51;;;;;;;8.00;5.40;;;;;;;;;;2084353;28;20176;-60
2022/04/10 03:22:52;;;;;;;14.20;5.13;;;;;;;;;;2090964;28;20611;-53
2022/04/10 03:23:52;;;;;;;12.87;4.90;;;;;;;;;;2100263;28;20179;-53
2022/04/10 03:24:53;;;;;;;7.60;4.90;;;;;;;;;;2091127;28;20285;-52
2022/04/10 03:25:53;;;;;;;9.57;5.10;;;;;;;;;;2083928;28;20176;-55
2022/04/10 03:26:54;;;;;;;8.67;4.93;;;;;;;;;;2083701;28;20169;-57
2022/04/10 03:27:54;;;;;;;8.87;5.40;;;;;;;;;;2086532;28;20182;-59
2022/04/10 03:28:55;;;;;;;11.60;5.03;;;;;;;;;;2082957;28;20657;-57
2022/04/10 03:29:55;;;;;;;12.07;4.97;;;;;;;;;;2088794;28;20758;-58
2022/04/10 03:30:57;;;;;;;7.87;4.87;;;;;;;;;;2083162;28;20219;-57
2022/04/10 03:31:57;;;;;;;14.03;5.40;;;;;;;;;;2074666;28;20176;-57
2022/04/10 03:32:58;;;;;;;8.57;5.73;;;;;;;;;;2077538;28;20172;-54
2022/04/10 03:33:58;;;;;;;8.33;5.13;;;;;;;;;;2087417;28;20706;-57
2022/04/10 03:34:58;;;;;;;9.37;4.83;;;;;;;;;;2084834;28;20168;-56
2022/04/10 03:35:59;;;;;;;7.80;5.30;;;;;;;;;;2086757;28;20238;-56
2022/04/10 03:36:59;;;;;;;9.73;5.00;;;;;;;;;;2091261;28;20620;-56
2022/04/10 03:37:59;;;;;;;10.30;4.50;;;;;;;;;;2081904;28;20169;-57
2022/04/10 03:39:00;;;;;;;10.27;5.00;;;;;;;;;;2088035;28;20172;-57
2022/04/10 03:40:03;;;;;;;10.63;5.20;;;;;;;;;;2085479;28;20203;-55
2022/04/10 03:41:04;;;;;;;10.33;5.43;;;;;;;;;;2087185;28;20180;-58
2022/04/10 03:42:04;;;;;;;9.70;4.70;;;;;;;;;;2087424;28;20400;-58
2022/04/10 03:43:06;;;;;;;11.93;5.43;;;;;;;;;;2092615;28;20634;-50
2022/04/10 03:44:07;;;;;;;7.97;4.90;;;;;;;;;;2087990;28;20168;-53
2022/04/10 03:45:09;;;;;;;5.70;4.50;;;;;;;;;;2080042;28;20683;-53
2022/04/10 03:46:09;;;;;;;9.13;4.97;;;;;;;;;;2080250;28;20181;-55
2022/04/10 03:47:10;;;;;;;11.03;4.73;;;;;;;;;;2088210;28;20176;-55
2022/04/10 03:48:11;;;;;;;10.13;5.53;;;;;;;;;;2082858;28;20177;-58
2022/04/10 03:49:12;;;;;;;9.57;4.90;;;;;;;;;;2078622;28;20412;-58
2022/04/10 03:50:12;;;;;;;10.87;4.90;;;;;;;;;;2090577;28;20200;-61
2022/04/10 03:51:12;;;;;;;5.10;4.50;;;;;;;;;;2089109;28;20198;-57
2022/04/10 03:52:13;;;;;;;9.20;4.87;;;;;;;;;;2075989;28;20239;-57
2022/04/10 03:53:13;;;;;;;12.33;5.10;;;;;;;;;;2078752;28;20202;-55
2022/04/10 03:54:14;;;;;;;12.23;5.43;;;;;;;;;;2080790;28;20172;-53
2022/04/10 03:55:14;;;;;;;11.80;4.80;;;;;;;;;;2079151;28;20173;-57
2022/04/10 03:56:15;;;;;;;7.93;4.37;;;;;;;;;;2079168;28;20180;-52
2022/04/10 03:57:15;;;;;;;14.23;5.30;;;;;;;;;;2081676;28;20207;-55
2022/04/10 03:58:16;;;;;;;8.30;5.10;;;;;;;;;;2081277;28;20172;-53
2022/04/10 03:59:17;;;;;;;11.20;5.50;;;;;;;;;;2081772;28;20257;-56
2022/04/10 04:00:18;;;;;;;10.90;5.30;;;;;;;;;;2080651;28;20194;-52
2022/04/10 04:01:26;;;;;;;15.43;5.40;;;;;;;;;;2082617;28;20172;-57
2022/04/10 04:02:27;;;;;;;7.63;5.27;;;;;;;;;;2081414;28;21213;-59
2022/04/10 04:03:27;;;;;;;15.37;5.27;;;;;;;;;;2081130;28;20191;-57
2022/04/10 04:04:27;;;;;;;13.70;4.97;;;;;;;;;;2080966;28;20221;-56
2022/04/10 04:05:28;;;;;;;11.30;5.10;;;;;;;;;;2089569;28;20780;-55
2022/04/10 04:06:29;;;;;;;9.13;5.60;;;;;;;;;;2089083;28;20176;-54
2022/04/10 04:07:29;;;;;;;8.03;5.53;;;;;;;;;;2078755;28;20268;-57
2022/04/10 04:08:29;;;;;;;13.03;6.00;;;;;;;;;;2081306;28;20175;-55
2022/04/10 04:09:30;;;;;;;9.13;5.20;;;;;;;;;;2074834;28;20188;-56
2022/04/10 04:10:31;;;;;;;9.43;5.73;;;;;;;;;;2069867;28;20202;-55
2022/04/10 04:11:31;;;;;;;12.83;6.17;;;;;;;;;;2094300;28;20176;-55
2022/04/10 04:12:33;;;;;;;11.17;5.80;;;;;;;;;;2093138;28;20341;-58
2022/04/10 04:13:40;;;;;;;9.33;5.43;;;;;;;;;;2085829;28;20176;-57
2022/04/10 04:14:41;;;;;;;12.23;4.83;;;;;;;;;;2085305;28;20433;-56
2022/04/10 04:15:42;;;;;;;8.90;5.27;;;;;;;;;;2085162;28;20405;-59
2022/04/10 04:16:42;;;;;;;11.97;5.77;;;;;;;;;;2088349;28;20168;-56
2022/04/10 04:17:43;;;;;;;8.73;4.87;;;;;;;;;;2076745;28;20562;-54
2022/04/10 04:18:43;;;;;;;10.63;5.67;;;;;;;;;;2084271;28;20177;-58
2022/04/10 04:19:46;;;;;;;11.37;6.00;;;;;;;;;;2092476;28;20175;-61
2022/04/10 04:20:46;;;;;;;6.73;5.33;;;;;;;;;;2084388;28;20176;-60
2022/04/10 04:21:46;;;;;;;12.10;5.57;;;;;;;;;;2092948;28;20187;-55
2022/04/10 04:22:48;;;;;;;14.47;5.40;;;;;;;;;;2091182;28;20207;-57
2022/04/10 04:23:49;;;;;;;8.33;5.37;;;;;;;;;;2087491;28;20172;-54
2022/04/10 04:24:49;;;;;;;12.87;5.83;;;;;;;;;;2090805;28;20190;-53
2022/04/10 04:25:50;;;;;;;14.03;5.87;;;;;;;;;;2075714;28;20232;-55
2022/04/10 04:26:50;;;;;;;13.53;6.20;;;;;;;;;;2081992;28;20211;-57
2022/04/10 04:27:51;;;;;;;10.60;5.73;;;;;;;;;;2093197;28;20163;-53
2022/04/10 04:28:52;;;;;;;15.03;6.17;;;;;;;;;;2091015;28;20656;-56
2022/04/10 04:29:53;;;;;;;10.13;5.67;;;;;;;;;;2080899;28;20212;-57
2022/04/10 04:30:54;;;;;;;9.33;5.37;;;;;;;;;;2082170;28;20660;-55
2022/04/10 04:31:54;;;;;;;9.70;5.53;;;;;;;;;;2090820;28;20276;-57
2022/04/10 04:32:56;;;;;;;10.27;5.70;;;;;;;;;;2088408;28;20179;-57
2022/04/10 04:33:56;;;;;;;14.43;5.50;;;;;;;;;;2085866;28;20179;-52
2022/04/10 04:34:56;;;;;;;10.87;5.40;;;;;;;;;;2090666;28;20416;-57
2022/04/10 04:35:57;;;;;;;11.93;4.80;;;;;;;;;;2087818;28;20306;-56
2022/04/10 04:36:58;;;;;;;11.77;5.07;;;;;;;;;;2075903;28;20177;-52
2022/04/10 04:38:00;;;;;;;8.93;5.00;;;;;;;;;;2085913;28;20630;-55
2022/04/10 04:39:00;;;;;;;10.23;5.43;;;;;;;;;;2089919;28;20258;-54
2022/04/10 04:40:01;;;;;;;10.27;5.97;;;;;;;;;;2081824;28;20813;-53
2022/04/10 04:41:02;;;;;;;15.17;5.53;;;;;;;;;;2087271;28;20168;-56
2022/04/10 04:42:02;;;;;;;9.30;5.40;;;;;;;;;;2081866;28;20422;-59
2022/04/10 04:43:03;;;;;;;13.13;5.63;;;;;;;;;;2078445;28;20196;-57
2022/04/10 04:44:07;;;;;;;14.40;6.77;;;;;;;;;;2093121;28;20698;-57
2022/04/10 04:45:08;;;;;;;15.00;5.80;;;;;;;;;;2090193;28;20468;-57
2022/04/10 04:46:08;;;;;;;10.17;6.33;;;;;;;;;;2090128;28;20175;-57
2022/04/10 04:47:09;;;;;;;10.50;6.20;;;;;;;;;;2090878;28;20568;-59
2022/04/10 04:48:10;;;;;;;13.80;5.77;;;;;;;;;;2082956;28;20172;-57
2022/04/10 04:49:10;;;;;;;10.70;5.23;;;;;;;;;;2083548;28;20187;-60
2022/04/10 04:50:10;;;;;;;8.20;4.63;;;;;;;;;;2082376;28;20220;-62
2022/04/10 04:51:14;;;;;;;11.87;6.07;;;;;;;;;;2091495;28;20171;-59
2022/04/10 04:52:16;;;;;;;11.57;5.03;;;;;;;;;;2077798;28;20457;-60
2022/04/10 04:53:17;;;;;;;9.73;5.97;;;;;;;;;;2081019;28;20232;-57
2022/04/10 04:54:18;;;;;;;13.33;5.83;;;;;;;;;;2082641;28;20969;-56
2022/04/10 04:55:18;;;;;;;12.43;7.00;;;;;;;;;;2077678;28;20256;-61
2022/04/10 04:56:18;;;;;;;6.20;5.53;;;;;;;;;;2085389;28;20203;-61
2022/04/10 04:57:19;;;;;;;10.03;5.63;;;;;;;;;;2084220;28;20724;-57
2022/04/10 04:58:20;;;;;;;9.63;6.27;;;;;;;;;;2089949;28;20172;-54
2022/04/10 04:59:20;;;;;;;11.53;5.50;;;;;;;;;;2080690;28;20180;-56
2022/04/10 05:00:21;;;;;;;14.30;5.53;;;;;;;;;;2080227;28;20184;-58
2022/04/10 05:01:29;;;;;;;7.27;4.77;;;;;;;;;;2085243;28;20168;-59
2022/04/10 05:02:29;;;;;;;10.67;4.93;;;;;;;;;;2081294;28;20259;-55
2022/04/10 05:03:29;;;;;;;10.00;5.70;;;;;;;;;;2088809;28;20648;-56
2022/04/10 05:04:30;;;;;;;10.67;5.60;;;;;;;;;;2089690;28;20262;-54
2022/04/10 05:05:31;;;;;;;10.17;6.20;;;;;;;;;;2087950;28;20175;-55
2022/04/10 05:06:39;;;;;;;9.70;5.87;;;;;;;;;;2081391;28;20466;-56
2022/04/10 05:07:40;;;;;;;8.80;6.13;;;;;;;;;;2073946;28;20417;-57
2022/04/10 05:08:41;;;;;;;8.20;5.67;;;;;;;;;;2075621;28;20733;-59
2022/04/10 05:09:42;;;;;;;13.77;6.80;;;;;;;;;;2083050;28;20184;-61
2022/04/10 05:10:43;;;;;;;10.77;6.33;;;;;;;;;;2089774;28;20400;-59
2022/04/10 05:11:44;;;;;;;10.97;5.70;;;;;;;;;;2077696;28;20177;-61
2022/04/10 05:12:44;;;;;;;10.27;5.33;;;;;;;;;;2082029;28;20634;-55
2022/04/10 05:13:48;;;;;;;12.67;6.20;;;;;;;;;;2079189;28;20180;-57
2022/04/10 05:14:49;;;;;;;11.13;5.97;;;;;;;;;;2084373;28;20262;-55
2022/04/10 05:15:50;;;;;;;8.40;5.00;;;;;;;;;;2088723;28;20202;-58
2022/04/10 05:16:53;;;;;;;7.63;5.50;;;;;;;;;;2087169;28;20210;-60
2022/04/10 05:17:54;;;;;;;13.20;6.27;;;;;;;;;;2074747;28;20210;-59
2022/04/10 05:18:56;;;;;;;9.10;5.67;;;;;;;;;;2081033;28;20425;-58
2022/04/10 05:19:59;;;;;;;11.93;6.03;;;;;;;;;;2080304;28;20234;-59
2022/04/10 05:21:00;;;;;;;13.57;6.53;;;;;;;;;;2084143;28;20418;-58
2022/04/10 05:22:01;;;;;;;10.57;5.87;;;;;;;;;;2088004;28;20259;-53
2022/04/10 05:23:01;;;;;;;12.20;5.70;;;;;;;;;;2084331;28;20169;-56
2022/04/10 05:24:04;;;;;;;9.70;5.00;;;;;;;;;;2086199;28;20180;-58
2022/04/10 05:25:04;;;;;;;13.53;5.57;;;;;;;;;;2080852;28;20176;-57
2022/04/10 05:26:06;;;;;;;11.10;5.27;;;;;;;;;;2072706;28;20185;-54
2022/04/10 05:27:10;;;;;;;11.17;5.80;;;;;;;;;;2072099;28;20494;-58
2022/04/10 05:28:11;;;;;;;10.57;6.60;;;;;;;;;;2086667;28;21068;-57
2022/04/10 05:29:12;;;;;;;11.57;6.27;;;;;;;;;;2082846;28;20443;-56
2022/04/10 05:30:12;;;;;;;9.37;5.70;;;;;;;;;;2078985;28;20242;-58
2022/04/10 05:31:13;;;;;;;11.23;5.07;;;;;;;;;;2071224;28;20695;-50
2022/04/10 05:32:18;;;;;;;10.93;5.97;;;;;;;;;;2065954;28;20216;-55
2022/04/10 05:33:18;;;;;;;6.57;5.67;;;;;;;;;;2077876;28;20205;-57
2022/04/10 05:34:19;;;;;;;12.77;6.07;;;;;;;;;;2086584;28;20164;-57
2022/04/10 05:35:20;;;;;;;9.27;5.13;;;;;;;;;;2083369;28;20485;-58
2022/04/10 05:36:21;;;;;;;13.20;5.60;;;;;;;;;;2087582;28;20164;-60
2022/04/10 05:37:23;;;;;;;12.23;6.07;;;;;;;;;;2083183;28;20169;-57
2022/04/10 05:38:27;;;;;;;8.87;6.00;;;;;;;;;;2087732;28;20207;-56
2022/04/10 05:39:28;;;;;;;13.47;5.93;;;;;;;;;;2084307;28;20469;-55
2022/04/10 05:40:28;;;;;;;9.23;5.07;;;;;;;;;;2085385;28;20196;-58
2022/04/10 05:41:30;;;;;;;9.77;5.77;;;;;;;;;;2085052;28;20187;-59
2022/04/10 05:42:42;;;;;;;13.50;6.30;;;;;;;;;;2082749;28;20425;-56
2022/04/10 05:43:42;;;;;;;6.00;4.10;;;;;;;;;;2080502;28;20208;-60
2022/04/10 05:44:42;;;;;;;5.27;4.80;;;;;;;;;;2078927;28;20437;-57
2022/04/10 05:45:44;;;;;;;9.60;4.97;;;;;;;;;;2078292;28;20247;-60
2022/04/10 05:46:44;;;;;;;9.63;5.40;;;;;;;;;;2072952;28;20285;-60
2022/04/10 05:47:46;;;;;;;9.90;4.87;;;;;;;;;;2083848;28;20870;-58
2022/04/10 05:48:47;;;;;;;7.00;4.90;;;;;;;;;;2090595;28;20163;-59
2022/04/10 05:49:50;;;;;;;12.47;5.30;;;;;;;;;;2092650;28;20209;-58
2022/04/10 05:50:50;;;;;;;6.80;4.40;;;;;;;;;;2092064;28;20692;-58
2022/04/10 05:51:51;;;;;;;6.33;5.23;;;;;;;;;;2088282;28;20655;-57
2022/04/10 05:52:52;;;;;;;7.77;5.07;;;;;;;;;;2086900;28;20191;-58
2022/04/10 05:53:56;;;;;;;9.60;5.07;;;;;;;;;;2093570;28;20171;-54
2022/04/10 05:54:59;;;;;;;15.73;5.23;;;;;;;;;;2093111;28;20183;-65
2022/04/10 05:56:02;;;;;;;10.73;5.03;;;;;;;;;;2103641;28;20205;-60
2022/04/10 05:57:07;;;;;;;8.17;5.03;;;;;;;;;;2082632;28;20256;-59
2022/04/10 05:58:08;;;;;;;7.07;4.70;;;;;;;;;;2081637;28;20634;-56
2022/04/10 05:59:09;;;;;;;7.07;5.23;;;;;;;;;;2093428;28;20167;-59
2022/04/10 06:00:11;;;;;;;5.83;5.03;;;;;;;;;;2094071;28;20191;-59
2022/04/10 06:01:15;;;;;;;8.23;5.10;;;;;;;;;;2104227;28;20186;-58
2022/04/10 06:02:16;;;;;;;9.13;4.87;;;;;;;;;;2096723;28;20266;-58
2022/04/10 06:03:17;;;;;;;12.23;4.83;;;;;;;;;;2094750;28;20600;-61
2022/04/10 06:04:20;;;;;;;10.80;5.20;;;;;;;;;;2082788;28;20251;-60
2022/04/10 06:05:21;;;;;;;11.30;5.87;;;;;;;;;;2084056;28;20505;-57